Time;durP1;ratioP1;P1;durP2;ratioP2;P2;SDS_P1;SDS_P2;PMS_P1;PMS_P2;Temp;Humidity;BMP_temperature;BMP_pressure;BME280_temperature;BME280_humidity;BME280_pressure;Samples;Min_cycle;Max_cycle;Signal;HPM_P1;HPM_P2
2022/10/13 00:00:39;;;;;;;0.03;0.03;;;10.50;99.90;;;;;;5031799;28;20265;-59
2022/10/13 00:03:04;;;;;;;0.00;0.00;;;10.40;99.90;;;;;;5032554;28;20546;-59
2022/10/13 00:05:30;;;;;;;0.00;0.00;;;10.40;99.90;;;;;;5031974;28;20228;-59
2022/10/13 00:07:56;;;;;;;0.10;0.10;;;10.40;99.90;;;;;;5032094;28;20664;-59
2022/10/13 00:10:23;;;;;;;0.75;0.75;;;10.40;99.90;;;;;;5031924;28;20178;-59
2022/10/13 00:12:49;;;;;;;0.20;0.20;;;10.30;99.90;;;;;;5032052;28;20650;-59
2022/10/13 00:15:14;;;;;;;0.20;0.13;;;10.30;99.90;;;;;;5032153;28;20270;-59
2022/10/13 00:17:40;;;;;;;1.45;1.35;;;10.30;99.90;;;;;;5031756;28;20188;-59
2022/10/13 00:20:07;;;;;;;0.57;0.57;;;10.20;99.90;;;;;;5031959;28;20248;-59
2022/10/13 00:22:33;;;;;;;0.20;0.20;;;10.20;99.90;;;;;;5031589;28;20589;-59
2022/10/13 00:24:58;;;;;;;0.15;0.15;;;10.20;99.90;;;;;;5031885;28;20217;-59
2022/10/13 00:27:24;;;;;;;0.00;0.00;;;10.20;99.90;;;;;;5031879;28;20208;-59
2022/10/13 00:29:49;;;;;;;0.28;0.28;;;10.20;99.90;;;;;;5031235;28;20255;-59
2022/10/13 00:32:15;;;;;;;0.00;0.00;;;10.20;99.90;;;;;;5031379;28;20214;-59
2022/10/13 00:34:41;;;;;;;0.00;0.00;;;10.20;99.90;;;;;;5031306;28;20582;-59
2022/10/13 00:37:07;;;;;;;0.10;0.10;;;10.20;99.90;;;;;;5031788;28;20179;-59
2022/10/13 00:39:32;;;;;;;0.43;0.43;;;10.30;99.90;;;;;;5031336;28;20673;-59
2022/10/13 00:41:59;;;;;;;0.93;0.93;;;10.30;99.90;;;;;;5031790;28;20541;-59
2022/10/13 00:45:03;;;;;;;0.03;0.00;;;10.30;99.90;;;;;;5031084;28;20531;-59
2022/10/13 00:47:40;;;;;;;0.65;0.45;;;10.40;99.90;;;;;;5016354;28;20479;-59
2022/10/13 00:50:10;;;;;;;0.00;0.00;;;10.40;99.90;;;;;;5031547;28;20236;-60
2022/10/13 00:52:36;;;;;;;0.43;0.43;;;10.40;99.90;;;;;;5031416;28;20689;-59
2022/10/13 00:55:04;;;;;;;0.10;0.10;;;10.50;99.90;;;;;;5031546;28;20186;-60
2022/10/13 00:57:31;;;;;;;0.55;0.55;;;10.50;99.90;;;;;;5031487;28;20634;-60
2022/10/13 00:59:58;;;;;;;0.45;0.45;;;10.50;99.90;;;;;;5031609;28;20535;-60
2022/10/13 01:02:29;;;;;;;0.65;0.47;;;10.50;99.90;;;;;;5031118;28;20243;-59
2022/10/13 01:04:56;;;;;;;0.15;0.15;;;10.60;99.90;;;;;;5029867;28;20213;-59
2022/10/13 01:07:22;;;;;;;0.03;0.03;;;10.70;99.90;;;;;;5030982;28;20171;-59
2022/10/13 01:09:48;;;;;;;0.47;0.25;;;10.70;99.90;;;;;;5030012;28;20186;-60
2022/10/13 01:12:35;;;;;;;0.00;0.00;;;10.70;99.90;;;;;;5031105;28;20542;-59
2022/10/13 01:15:12;;;;;;;0.20;0.20;;;10.80;99.90;;;;;;5030786;28;20189;-60
2022/10/13 01:18:07;;;;;;;0.25;0.25;;;10.90;99.90;;;;;;5016151;28;20272;-60
2022/10/13 01:20:38;;;;;;;0.10;0.10;;;11.00;99.90;;;;;;5027536;28;20256;-60
2022/10/13 01:23:29;;;;;;;0.00;0.00;;;11.00;99.90;;;;;;5031215;28;20205;-60
2022/10/13 01:26:18;;;;;;;0.00;0.00;;;11.10;99.90;;;;;;5031058;28;20531;-60
2022/10/13 01:29:19;;;;;;;0.10;0.10;;;11.10;99.90;;;;;;5024052;28;20182;-60
2022/10/13 01:31:58;;;;;;;0.00;0.00;;;11.20;99.90;;;;;;5030583;28;20212;-59
2022/10/13 01:34:49;;;;;;;0.13;0.13;;;11.20;99.90;;;;;;5030659;28;20217;-60
2022/10/13 01:37:30;;;;;;;0.00;0.00;;;11.20;99.90;;;;;;5030749;28;20201;-60
2022/10/13 01:40:09;;;;;;;0.00;0.00;;;11.10;99.90;;;;;;5018577;28;20178;-60
2022/10/13 01:43:00;;;;;;;0.30;0.30;;;11.10;99.90;;;;;;5030931;28;20182;-59
2022/10/13 01:45:36;;;;;;;0.00;0.00;;;11.10;99.90;;;;;;5023792;28;20174;-60
2022/10/13 01:48:03;;;;;;;0.08;0.08;;;11.10;99.90;;;;;;5030641;28;20185;-60
2022/10/13 01:50:31;;;;;;;0.60;0.60;;;11.00;99.90;;;;;;5030467;28;20283;-60
2022/10/13 01:53:00;;;;;;;0.68;0.68;;;11.00;99.90;;;;;;5030874;28;20233;-60
2022/10/13 01:55:27;;;;;;;0.15;0.15;;;11.00;99.90;;;;;;5031004;28;20649;-60
2022/10/13 01:57:53;;;;;;;0.47;0.47;;;11.00;99.90;;;;;;5030789;28;20190;-60
2022/10/13 02:00:21;;;;;;;0.45;0.45;;;11.00;99.90;;;;;;5030896;28;20784;-60
2022/10/13 02:03:05;;;;;;;0.03;0.03;;;11.00;99.90;;;;;;5029700;28;20183;-59
2022/10/13 02:06:11;;;;;;;0.15;0.15;;;11.00;99.90;;;;;;5030327;28;20221;-60
2022/10/13 02:08:41;;;;;;;0.30;0.30;;;11.00;99.90;;;;;;5019928;28;20216;-60
2022/10/13 02:11:14;;;;;;;0.20;0.20;;;10.90;99.90;;;;;;5029965;28;20202;-60
2022/10/13 02:13:58;;;;;;;0.08;0.08;;;10.90;99.90;;;;;;5030151;28;20541;-60
2022/10/13 02:16:27;;;;;;;0.38;0.05;;;10.90;99.90;;;;;;5029195;28;20182;-60
2022/10/13 02:18:55;;;;;;;0.52;0.52;;;10.90;99.90;;;;;;5034256;28;20190;-60
2022/10/13 02:21:21;;;;;;;0.57;0.57;;;10.90;99.90;;;;;;5033796;28;20190;-60
2022/10/13 02:23:47;;;;;;;0.15;0.15;;;10.90;99.90;;;;;;5034335;28;20261;-60
2022/10/13 02:26:13;;;;;;;0.43;0.43;;;10.90;99.90;;;;;;5033841;28;20182;-60
2022/10/13 02:28:39;;;;;;;0.43;0.43;;;10.90;99.90;;;;;;5034450;28;20646;-60
2022/10/13 02:31:07;;;;;;;0.10;0.10;;;10.90;99.90;;;;;;5032456;28;20319;-60
2022/10/13 02:33:33;;;;;;;0.00;0.00;;;10.90;99.90;;;;;;5025046;28;20182;-60
2022/10/13 02:35:58;;;;;;;0.20;0.20;;;10.90;99.90;;;;;;5033917;28;20192;-60
2022/10/13 02:38:24;;;;;;;0.57;0.57;;;10.90;99.90;;;;;;5033836;28;20198;-60
2022/10/13 02:40:50;;;;;;;0.20;0.20;;;10.90;99.90;;;;;;5033603;28;20181;-60
2022/10/13 02:43:15;;;;;;;0.00;0.00;;;10.80;99.90;;;;;;5033635;28;20174;-60
2022/10/13 02:45:41;;;;;;;0.10;0.10;;;10.80;99.90;;;;;;5033495;28;20205;-60
2022/10/13 02:48:06;;;;;;;0.13;0.13;;;10.80;99.90;;;;;;5033839;28;20178;-60
2022/10/13 02:50:32;;;;;;;1.38;0.17;;;10.80;99.90;;;;;;5032280;28;20174;-60
2022/10/13 02:52:58;;;;;;;0.00;0.00;;;10.80;99.90;;;;;;5033457;28;20256;-60
2022/10/13 02:55:23;;;;;;;0.20;0.20;;;10.80;99.90;;;;;;5033579;28;20646;-60
2022/10/13 02:57:49;;;;;;;0.43;0.43;;;10.80;99.90;;;;;;5033362;28;20188;-60
2022/10/13 03:00:15;;;;;;;0.00;0.00;;;10.80;99.90;;;;;;5033664;28;20269;-59
2022/10/13 03:02:41;;;;;;;0.00;0.00;;;10.80;99.90;;;;;;5033234;28;20178;-59
2022/10/13 03:05:07;;;;;;;0.52;0.52;;;10.80;99.90;;;;;;5031471;28;20225;-60
2022/10/13 03:07:33;;;;;;;1.35;1.13;;;10.80;99.90;;;;;;5033161;28;20217;-60
2022/10/13 03:09:58;;;;;;;0.10;0.10;;;10.80;99.90;;;;;;5033289;28;20569;-60
2022/10/13 03:12:24;;;;;;;0.00;0.00;;;10.80;99.90;;;;;;5033167;28;20214;-60
2022/10/13 03:14:49;;;;;;;0.00;0.00;;;10.80;99.90;;;;;;5033341;28;20541;-60
2022/10/13 03:17:15;;;;;;;0.20;0.20;;;10.80;99.90;;;;;;5032845;28;20190;-60
2022/10/13 03:19:40;;;;;;;0.20;0.20;;;10.70;99.90;;;;;;5032935;28;20268;-59
2022/10/13 03:22:06;;;;;;;0.47;0.47;;;10.70;99.90;;;;;;5032849;28;20240;-60
2022/10/13 03:24:31;;;;;;;0.17;0.17;;;10.70;99.90;;;;;;5032961;28;20281;-60
2022/10/13 03:26:57;;;;;;;0.25;0.20;;;10.70;99.90;;;;;;5032404;28;20217;-60
2022/10/13 03:29:22;;;;;;;0.40;0.28;;;10.70;99.90;;;;;;5031427;28;20252;-60
2022/10/13 03:31:48;;;;;;;0.35;0.35;;;10.70;99.90;;;;;;5033059;28;20328;-60
2022/10/13 03:34:15;;;;;;;0.40;0.40;;;10.70;99.90;;;;;;5032621;28;20186;-59
2022/10/13 03:36:41;;;;;;;1.35;0.93;;;10.70;99.90;;;;;;5032709;28;20189;-59
2022/10/13 03:39:06;;;;;;;0.20;0.20;;;10.70;99.90;;;;;;5032786;28;20178;-59
2022/10/13 03:41:32;;;;;;;0.50;0.50;;;10.60;99.90;;;;;;5032232;28;20533;-60
2022/10/13 03:43:57;;;;;;;0.30;0.30;;;10.60;99.90;;;;;;5032352;28;20217;-60
2022/10/13 03:46:26;;;;;;;0.20;0.20;;;10.60;99.90;;;;;;5032230;28;20193;-60
2022/10/13 03:48:52;;;;;;;0.00;0.00;;;10.50;99.90;;;;;;5032491;28;20193;-60
2022/10/13 03:51:19;;;;;;;0.10;0.10;;;10.50;99.90;;;;;;5032585;28;20210;-60
2022/10/13 03:53:46;;;;;;;0.00;0.00;;;10.40;99.90;;;;;;5032235;28;20254;-61
2022/10/13 03:56:24;;;;;;;0.00;0.00;;;10.40;99.90;;;;;;5032861;28;20676;-59
2022/10/13 03:58:53;;;;;;;0.35;0.20;;;10.30;99.90;;;;;;5032503;28;20178;-59
2022/10/13 04:01:20;;;;;;;0.17;0.17;;;10.40;99.90;;;;;;5032044;28;20186;-59
2022/10/13 04:03:46;;;;;;;0.13;0.13;;;10.40;99.90;;;;;;5032426;28;20181;-59
2022/10/13 04:06:11;;;;;;;0.32;0.20;;;10.40;99.90;;;;;;5031531;28;20229;-59
2022/10/13 04:08:37;;;;;;;0.38;0.38;;;10.40;99.90;;;;;;5031913;28;20718;-59
2022/10/13 04:11:05;;;;;;;0.20;0.20;;;10.40;99.90;;;;;;5032098;28;20210;-60
2022/10/13 04:13:32;;;;;;;0.32;0.15;;;10.40;99.90;;;;;;5031062;28;20183;-63
2022/10/13 04:16:05;;;;;;;0.40;0.40;;;10.40;99.90;;;;;;5032409;28;20217;-60
2022/10/13 04:18:31;;;;;;;0.25;0.25;;;10.40;99.90;;;;;;5032308;28;20178;-63
2022/10/13 04:20:57;;;;;;;0.10;0.10;;;10.40;99.90;;;;;;5032613;28;20179;-64
2022/10/13 04:23:22;;;;;;;0.25;0.25;;;10.40;99.90;;;;;;5031155;28;20227;-60
2022/10/13 04:25:48;;;;;;;0.10;0.10;;;10.40;99.90;;;;;;5032376;28;20252;-63
2022/10/13 04:28:14;;;;;;;0.63;0.63;;;10.40;99.90;;;;;;5032370;28;20178;-62
2022/10/13 04:30:40;;;;;;;0.38;0.38;;;10.50;99.90;;;;;;5032238;28;20186;-62
2022/10/13 04:33:06;;;;;;;0.25;0.22;;;10.50;99.90;;;;;;5032315;28;20212;-63
2022/10/13 04:35:32;;;;;;;0.65;0.65;;;10.50;99.90;;;;;;5032326;28;20178;-63
2022/10/13 04:37:57;;;;;;;0.10;0.10;;;10.50;99.90;;;;;;5032282;28;20633;-62
2022/10/13 04:40:24;;;;;;;0.20;0.20;;;10.50;99.90;;;;;;5031511;28;20652;-60
2022/10/13 04:42:49;;;;;;;0.75;0.75;;;10.50;99.90;;;;;;5032000;28;20182;-60
2022/10/13 04:45:15;;;;;;;0.38;0.38;;;10.60;99.90;;;;;;5031100;28;20193;-61
2022/10/13 04:47:41;;;;;;;0.00;0.00;;;10.60;99.90;;;;;;5031820;28;20182;-61
2022/10/13 04:50:07;;;;;;;0.13;0.13;;;10.50;99.90;;;;;;5032017;28;20173;-62
2022/10/13 04:52:34;;;;;;;0.73;0.52;;;10.50;99.90;;;;;;5032054;28;20271;-62
2022/10/13 04:54:59;;;;;;;0.00;0.00;;;10.50;99.90;;;;;;5031968;28;20579;-61
2022/10/13 04:57:25;;;;;;;0.00;0.00;;;10.50;99.90;;;;;;5031943;28;20264;-62
2022/10/13 04:59:50;;;;;;;0.10;0.10;;;10.50;99.90;;;;;;5031906;28;20215;-61
2022/10/13 05:02:16;;;;;;;0.10;0.10;;;10.50;99.90;;;;;;5031631;28;20236;-61
2022/10/13 05:04:42;;;;;;;0.28;0.28;;;10.50;99.90;;;;;;5031768;28;20233;-61
2022/10/13 05:07:07;;;;;;;0.00;0.00;;;10.50;99.90;;;;;;5031767;28;20178;-61
2022/10/13 05:09:33;;;;;;;0.05;0.05;;;10.50;99.90;;;;;;5031943;28;20181;-61
2022/10/13 05:11:58;;;;;;;0.00;0.00;;;10.50;99.90;;;;;;5031589;28;20222;-61
2022/10/13 05:14:24;;;;;;;1.13;0.45;;;10.50;99.90;;;;;;5031823;28;20170;-61
2022/10/13 05:16:49;;;;;;;0.20;0.20;;;10.40;99.90;;;;;;5031707;28;20178;-61
2022/10/13 05:19:15;;;;;;;0.13;0.13;;;10.40;99.90;;;;;;5031352;28;20186;-61
2022/10/13 05:21:41;;;;;;;0.25;0.08;;;10.40;99.90;;;;;;5031721;28;20186;-61
2022/10/13 05:24:11;;;;;;;0.20;0.20;;;10.40;99.90;;;;;;5031509;28;20174;-61
2022/10/13 05:26:37;;;;;;;0.17;0.17;;;10.40;99.90;;;;;;5031512;28;20182;-61
2022/10/13 05:29:03;;;;;;;0.00;0.00;;;10.40;99.90;;;;;;5031536;28;20540;-61
2022/10/13 05:31:31;;;;;;;0.10;0.10;;;10.40;99.90;;;;;;5031542;28;20205;-62
2022/10/13 05:33:56;;;;;;;0.65;0.65;;;10.30;99.90;;;;;;5031315;28;20186;-61
2022/10/13 05:36:24;;;;;;;0.03;0.03;;;10.30;99.90;;;;;;5031450;28;20174;-61
2022/10/13 05:38:55;;;;;;;0.00;0.00;;;10.30;99.90;;;;;;5031648;28;20253;-62
2022/10/13 05:41:22;;;;;;;0.25;0.22;;;10.30;99.90;;;;;;5031444;28;20178;-61
2022/10/13 05:43:48;;;;;;;0.10;0.10;;;10.30;99.90;;;;;;5031455;28;20185;-61
2022/10/13 05:46:14;;;;;;;0.00;0.00;;;10.30;99.90;;;;;;5031312;28;20214;-61
2022/10/13 05:48:39;;;;;;;0.30;0.30;;;10.30;99.90;;;;;;5031367;28;20224;-61
2022/10/13 05:51:36;;;;;;;0.25;0.25;;;10.30;99.90;;;;;;5033629;28;20610;-61
2022/10/13 05:54:16;;;;;;;0.10;0.10;;;10.30;99.90;;;;;;5034852;28;20197;-61
2022/10/13 05:56:46;;;;;;;0.20;0.20;;;10.40;99.90;;;;;;5035242;28;20170;-61
2022/10/13 05:59:15;;;;;;;0.20;0.20;;;10.40;99.90;;;;;;5035287;28;20173;-61
2022/10/13 06:01:41;;;;;;;0.08;0.08;;;10.40;99.90;;;;;;5035164;28;20204;-61
2022/10/13 06:04:13;;;;;;;0.03;0.03;;;10.40;99.90;;;;;;5034847;28;20178;-62
2022/10/13 06:06:39;;;;;;;0.00;0.00;;;10.50;99.90;;;;;;5035056;28;20182;-62
2022/10/13 06:09:04;;;;;;;0.30;0.30;;;10.50;99.90;;;;;;5034979;28;20637;-62
2022/10/13 06:11:30;;;;;;;0.00;0.00;;;10.50;99.90;;;;;;5035086;28;20225;-62
2022/10/13 06:13:55;;;;;;;0.10;0.10;;;10.50;99.90;;;;;;5034856;28;20658;-62
2022/10/13 06:16:21;;;;;;;0.00;0.00;;;10.60;99.90;;;;;;5034815;28;20244;-62
2022/10/13 06:18:47;;;;;;;0.08;0.08;;;10.60;99.90;;;;;;5034674;28;20186;-62
2022/10/13 06:21:12;;;;;;;0.00;0.00;;;10.60;99.90;;;;;;5034749;28;20186;-62
2022/10/13 06:23:38;;;;;;;0.20;0.20;;;10.60;99.90;;;;;;5034841;28;20178;-62
2022/10/13 06:26:06;;;;;;;0.10;0.10;;;10.70;99.90;;;;;;5034695;28;20167;-62
2022/10/13 06:28:31;;;;;;;0.08;0.05;;;10.70;99.90;;;;;;5034697;28;20189;-62
2022/10/13 06:30:57;;;;;;;0.08;0.08;;;10.70;99.90;;;;;;5034420;28;20182;-62
2022/10/13 06:33:23;;;;;;;0.45;0.45;;;10.70;99.90;;;;;;5034486;28;20178;-62
2022/10/13 06:35:50;;;;;;;0.05;0.05;;;10.70;99.90;;;;;;5034660;28;20590;-62
2022/10/13 06:38:16;;;;;;;0.05;0.05;;;10.80;99.90;;;;;;5034338;28;20229;-62
2022/10/13 06:40:42;;;;;;;0.00;0.00;;;10.80;99.90;;;;;;5034572;28;20201;-62
2022/10/13 06:43:08;;;;;;;0.20;0.10;;;10.80;99.90;;;;;;5034516;28;20175;-61
2022/10/13 06:45:34;;;;;;;0.20;0.20;;;10.90;99.90;;;;;;5034103;28;20186;-62
2022/10/13 06:47:59;;;;;;;0.15;0.15;;;11.00;99.90;;;;;;5033139;28;20183;-62
2022/10/13 06:50:25;;;;;;;0.03;0.03;;;11.00;99.90;;;;;;5034138;28;20540;-62
2022/10/13 06:52:51;;;;;;;0.08;0.08;;;11.10;99.90;;;;;;5034258;28;20216;-62
2022/10/13 06:55:17;;;;;;;0.00;0.00;;;11.20;99.90;;;;;;5034140;28;20178;-62
2022/10/13 06:57:42;;;;;;;0.13;0.13;;;11.20;99.90;;;;;;5034174;28;20558;-62
2022/10/13 07:00:08;;;;;;;0.00;0.00;;;11.30;99.90;;;;;;5034102;28;20178;-62
2022/10/13 07:02:34;;;;;;;0.10;0.10;;;11.40;99.90;;;;;;5033331;28;20210;-62
2022/10/13 07:04:59;;;;;;;0.30;0.22;;;11.50;99.90;;;;;;5033884;28;20253;-62
2022/10/13 07:07:25;;;;;;;0.10;0.10;;;11.60;99.90;;;;;;5033821;28;20273;-62
2022/10/13 07:09:51;;;;;;;0.10;0.10;;;11.60;99.90;;;;;;5034108;28;20209;-62
2022/10/13 07:12:16;;;;;;;0.00;0.00;;;11.70;99.90;;;;;;5033812;28;20222;-61
2022/10/13 07:14:42;;;;;;;0.00;0.00;;;11.70;99.90;;;;;;5033846;28;20321;-62
2022/10/13 07:17:08;;;;;;;0.15;0.15;;;11.80;99.90;;;;;;5033816;28;20232;-61
2022/10/13 07:19:33;;;;;;;0.13;0.13;;;11.80;99.90;;;;;;5033827;28;20178;-61
2022/10/13 07:21:59;;;;;;;0.22;0.22;;;11.90;99.90;;;;;;5033804;28;20174;-62
2022/10/13 07:24:25;;;;;;;0.10;0.10;;;12.00;99.90;;;;;;5033748;28;20174;-62
2022/10/13 07:26:50;;;;;;;0.13;0.13;;;12.00;99.90;;;;;;5033633;28;20265;-62
2022/10/13 07:29:16;;;;;;;0.15;0.15;;;12.10;99.90;;;;;;5033652;28;20205;-62
2022/10/13 07:31:43;;;;;;;0.20;0.20;;;12.20;99.90;;;;;;5033624;28;20244;-62
2022/10/13 07:34:09;;;;;;;0.25;0.15;;;12.30;99.90;;;;;;5032340;28;20707;-62
2022/10/13 07:36:34;;;;;;;0.00;0.00;;;12.50;99.90;;;;;;5033616;28;20186;-62
2022/10/13 07:39:02;;;;;;;0.70;0.30;;;12.60;99.90;;;;;;5033493;28;20182;-62
2022/10/13 07:41:28;;;;;;;0.55;0.32;;;12.80;99.90;;;;;;5033339;28;20213;-63
2022/10/13 07:43:56;;;;;;;0.00;0.00;;;13.10;99.90;;;;;;5033518;28;20200;-62
2022/10/13 07:46:22;;;;;;;0.17;0.17;;;13.40;99.90;;;;;;5033204;28;20608;-62
2022/10/13 07:48:48;;;;;;;0.13;0.10;;;13.60;99.90;;;;;;5033304;28;20182;-62
2022/10/13 07:51:14;;;;;;;0.00;0.00;;;13.90;99.90;;;;;;5033193;28;20244;-62
2022/10/13 07:53:41;;;;;;;0.20;0.17;;;14.00;99.90;;;;;;5033346;28;20193;-62
2022/10/13 07:56:08;;;;;;;0.30;0.30;;;14.20;99.90;;;;;;5033004;28;20170;-62
2022/10/13 07:58:36;;;;;;;0.43;0.43;;;14.40;99.90;;;;;;5033075;28;20212;-62
2022/10/13 08:01:02;;;;;;;0.03;0.03;;;14.50;99.90;;;;;;5032947;28;20182;-62
2022/10/13 08:03:28;;;;;;;0.17;0.17;;;14.80;99.90;;;;;;5033000;28;20193;-62
2022/10/13 08:05:56;;;;;;;0.05;0.05;;;15.10;99.90;;;;;;5032937;28;20308;-62
2022/10/13 08:08:22;;;;;;;0.13;0.13;;;15.40;99.90;;;;;;5032754;28;20178;-62
2022/10/13 08:10:48;;;;;;;0.00;0.00;;;15.90;99.90;;;;;;5032874;28;20212;-62
2022/10/13 08:13:13;;;;;;;0.15;0.15;;;16.30;99.90;;;;;;5032622;28;20213;-62
2022/10/13 08:15:43;;;;;;;0.00;0.00;;;16.60;99.90;;;;;;5032910;28;20182;-62
2022/10/13 08:18:10;;;;;;;0.00;0.00;;;17.00;99.90;;;;;;5031318;28;20668;-63
2022/10/13 08:20:44;;;;;;;0.10;0.10;;;17.30;99.90;;;;;;5032609;28;20638;-63
2022/10/13 08:23:11;;;;;;;0.25;0.25;;;17.60;99.90;;;;;;5032528;28;20538;-62
2022/10/13 08:25:40;;;;;;;0.00;0.00;;;17.70;99.90;;;;;;5032608;28;20170;-62
2022/10/13 08:28:17;;;;;;;0.00;0.00;;;17.90;99.90;;;;;;5032280;28;20555;-62
2022/10/13 08:30:43;;;;;;;0.00;0.00;;;17.90;99.90;;;;;;5032478;28;20181;-62
2022/10/13 08:33:09;;;;;;;0.05;0.05;;;18.00;99.90;;;;;;5032356;28;20561;-62
2022/10/13 08:35:34;;;;;;;0.00;0.00;;;18.00;99.90;;;;;;5032491;28;20236;-63
2022/10/13 08:38:00;;;;;;;0.10;0.10;;;18.20;99.90;;;;;;5032318;28;20577;-62
2022/10/13 08:40:25;;;;;;;0.00;0.00;;;18.20;99.90;;;;;;5032146;28;20185;-62
2022/10/13 08:42:51;;;;;;;0.17;0.10;;;18.20;99.90;;;;;;5032317;28;20638;-62
2022/10/13 08:45:25;;;;;;;0.30;0.30;;;18.20;99.90;;;;;;5032031;28;20189;-62
2022/10/13 08:48:02;;;;;;;0.10;0.10;;;18.10;99.90;;;;;;5032384;28;20174;-62
2022/10/13 08:50:30;;;;;;;0.03;0.03;;;18.00;99.90;;;;;;5032287;28;20519;-62
2022/10/13 08:52:58;;;;;;;0.50;0.15;;;18.00;99.90;;;;;;5032079;28;20580;-62
2022/10/13 08:55:49;;;;;;;0.32;0.32;;;18.00;99.90;;;;;;5031923;28;20249;-62
2022/10/13 08:58:32;;;;;;;0.03;0.03;;;17.90;99.90;;;;;;5031812;28;20220;-62
2022/10/13 09:01:18;;;;;;;0.35;0.35;;;17.90;99.90;;;;;;5032013;28;20194;-62
2022/10/13 09:03:49;;;;;;;0.00;0.00;;;17.90;99.90;;;;;;5031793;28;20209;-62
2022/10/13 09:06:20;;;;;;;0.00;0.00;;;17.90;99.90;;;;;;5031720;28;20291;-62
2022/10/13 09:08:52;;;;;;;0.00;0.00;;;17.90;99.90;;;;;;5031844;28;20212;-62
2022/10/13 09:11:18;;;;;;;0.00;0.00;;;17.90;99.90;;;;;;5031826;28;20221;-62
2022/10/13 09:13:44;;;;;;;0.08;0.08;;;17.90;99.90;;;;;;5031805;28;20186;-62
2022/10/13 09:16:10;;;;;;;0.20;0.20;;;17.90;99.90;;;;;;5031774;28;20197;-62
2022/10/13 09:18:36;;;;;;;0.00;0.00;;;17.90;99.90;;;;;;5031768;28;20175;-62
2022/10/13 09:21:34;;;;;;;0.10;0.10;;;17.80;99.90;;;;;;5031858;28;21097;-62
2022/10/13 09:24:06;;;;;;;0.43;0.43;;;17.60;99.90;;;;;;5030327;28;20239;-62
2022/10/13 09:26:37;;;;;;;0.17;0.17;;;17.50;99.90;;;;;;5031357;28;20177;-62
2022/10/13 09:29:14;;;;;;;0.15;0.15;;;17.40;99.90;;;;;;5031534;28;20657;-62
2022/10/13 09:31:39;;;;;;;0.00;0.00;;;17.30;99.90;;;;;;5031804;28;20652;-62
2022/10/13 09:34:31;;;;;;;0.10;0.10;;;17.10;99.90;;;;;;5031454;28;20197;-62
2022/10/13 09:37:02;;;;;;;0.00;0.00;;;16.90;99.90;;;;;;5031345;28;20232;-62
2022/10/13 09:39:29;;;;;;;0.55;0.43;;;16.90;99.90;;;;;;5031611;28;20672;-62
2022/10/13 09:42:18;;;;;;;0.00;0.00;;;16.80;99.90;;;;;;5031958;28;20553;-62
2022/10/13 09:44:45;;;;;;;0.08;0.08;;;16.70;99.90;;;;;;5031489;28;20205;-62
2022/10/13 09:47:20;;;;;;;0.10;0.10;;;16.70;99.90;;;;;;5031464;28;20606;-62
2022/10/13 09:50:01;;;;;;;0.05;0.05;;;16.60;99.90;;;;;;5030125;28;20247;-62
2022/10/13 09:52:27;;;;;;;0.00;0.00;;;16.60;99.90;;;;;;5031447;28;20665;-62
2022/10/13 09:54:59;;;;;;;0.00;0.00;;;16.60;99.90;;;;;;5031392;28;20189;-62
2022/10/13 09:57:33;;;;;;;0.00;0.00;;;16.60;99.90;;;;;;5031191;28;20565;-62
2022/10/13 10:00:31;;;;;;;0.03;0.03;;;16.50;99.90;;;;;;5031347;28;20181;-62
2022/10/13 10:03:11;;;;;;;1.25;1.15;;;16.50;99.90;;;;;;5019184;28;20210;-62
2022/10/13 10:05:48;;;;;;;0.00;0.00;;;16.60;99.90;;;;;;5031313;28;20234;-62
2022/10/13 10:08:38;;;;;;;0.00;0.00;;;16.60;99.90;;;;;;5031283;28;20229;-62
2022/10/13 10:11:11;;;;;;;0.00;0.00;;;16.60;99.90;;;;;;5031073;28;20630;-62
2022/10/13 10:13:37;;;;;;;0.00;0.00;;;16.60;99.90;;;;;;5031219;28;20570;-62
2022/10/13 10:16:06;;;;;;;0.15;0.15;;;16.60;99.90;;;;;;5031100;28;20265;-62
2022/10/13 10:18:43;;;;;;;0.00;0.00;;;16.60;99.90;;;;;;5026496;28;20601;-62
2022/10/13 10:21:34;;;;;;;0.10;0.10;;;16.60;99.90;;;;;;5011441;28;20229;-62
2022/10/13 10:24:10;;;;;;;0.00;0.00;;;16.60;99.90;;;;;;5011355;28;20545;-62
2022/10/13 10:27:14;;;;;;;0.00;0.00;;;16.70;99.90;;;;;;5016201;28;20638;-62
2022/10/13 10:29:53;;;;;;;0.10;0.10;;;16.90;99.90;;;;;;5026370;28;20264;-63
2022/10/13 10:32:41;;;;;;;0.30;0.30;;;17.00;99.90;;;;;;5030921;28;20272;-63
2022/10/13 10:35:37;;;;;;;0.05;0.05;;;17.20;99.90;;;;;;5030926;28;20174;-62
2022/10/13 10:38:32;;;;;;;0.00;0.00;;;17.30;99.90;;;;;;5033003;28;20178;-62
2022/10/13 10:41:25;;;;;;;0.25;0.22;;;17.40;99.90;;;;;;5033321;28;20189;-63
2022/10/13 10:44:06;;;;;;;0.00;0.00;;;17.50;99.90;;;;;;5034599;28;20185;-63
2022/10/13 10:46:35;;;;;;;0.20;0.20;;;17.60;99.90;;;;;;5033231;28;20222;-62
2022/10/13 10:49:11;;;;;;;0.17;0.17;;;17.60;99.90;;;;;;5034267;28;20179;-62
2022/10/13 10:51:38;;;;;;;0.40;0.40;;;17.60;99.90;;;;;;5034255;28;20214;-62
2022/10/13 10:54:44;;;;;;;0.00;0.00;;;17.60;99.90;;;;;;5034085;28;20212;-62
2022/10/13 10:57:24;;;;;;;0.17;0.17;;;17.70;99.90;;;;;;5034306;28;20225;-62
2022/10/13 10:59:52;;;;;;;0.10;0.10;;;17.80;99.90;;;;;;5034248;28;20189;-62
2022/10/13 11:02:32;;;;;;;0.00;0.00;;;18.00;99.90;;;;;;5034322;28;20182;-62
2022/10/13 11:04:59;;;;;;;0.00;0.00;;;18.20;99.90;;;;;;5033848;28;20324;-62
2022/10/13 11:07:25;;;;;;;0.22;0.20;;;18.40;99.90;;;;;;5033818;28;20514;-62
2022/10/13 11:09:55;;;;;;;0.00;0.00;;;18.70;99.90;;;;;;5034015;28;20261;-62
2022/10/13 11:12:22;;;;;;;0.17;0.17;;;18.90;99.90;;;;;;5033818;28;20225;-62
2022/10/13 11:14:53;;;;;;;0.10;0.08;;;19.10;99.90;;;;;;5033821;28;20656;-62
2022/10/13 11:17:25;;;;;;;0.15;0.08;;;19.20;99.90;;;;;;5033769;28;20340;-62
2022/10/13 11:19:51;;;;;;;0.00;0.00;;;19.20;99.90;;;;;;5033802;28;20185;-62
2022/10/13 11:22:18;;;;;;;0.57;0.57;;;19.20;99.90;;;;;;5033601;28;20228;-62
2022/10/13 11:24:46;;;;;;;0.00;0.00;;;19.20;99.90;;;;;;5033550;28;20185;-62
2022/10/13 11:27:15;;;;;;;1.38;0.15;;;19.10;99.90;;;;;;5033626;28;20189;-62
2022/10/13 11:29:47;;;;;;;0.00;0.00;;;19.10;99.90;;;;;;5033745;28;20220;-62
2022/10/13 11:35:05;;;;;;;0.25;0.25;;;19.00;99.90;;;;;;5033453;28;20177;-62
2022/10/13 11:37:40;;;;;;;0.10;0.10;;;19.00;99.90;;;;;;5033571;28;20186;-62
2022/10/13 11:40:33;;;;;;;0.00;0.00;;;19.00;99.90;;;;;;5033152;28;20208;-62
2022/10/13 11:43:31;;;;;;;0.10;0.10;;;19.00;99.90;;;;;;5033423;28;20189;-62
2022/10/13 11:46:13;;;;;;;0.00;0.00;;;19.00;99.90;;;;;;5033393;28;20193;-62
2022/10/13 11:48:53;;;;;;;0.00;0.00;;;18.90;99.90;;;;;;5033028;28;20201;-62
2022/10/13 11:51:47;;;;;;;0.10;0.10;;;19.00;99.90;;;;;;5033112;28;20240;-62
2022/10/13 11:54:34;;;;;;;0.00;0.00;;;18.90;99.90;;;;;;5033152;28;20727;-62
2022/10/13 11:56:59;;;;;;;0.30;0.30;;;19.10;99.90;;;;;;5033090;28;20189;-62
2022/10/13 11:59:34;;;;;;;0.20;0.20;;;19.10;99.90;;;;;;5032981;28;20187;-62
2022/10/13 12:02:09;;;;;;;0.00;0.00;;;19.10;99.90;;;;;;5032923;28;20180;-62
2022/10/13 12:04:34;;;;;;;0.00;0.00;;;19.20;99.90;;;;;;5032826;28;20347;-62
2022/10/13 12:07:04;;;;;;;0.00;0.00;;;19.40;99.90;;;;;;5032889;28;20261;-62
2022/10/13 12:09:31;;;;;;;0.25;0.25;;;19.70;99.90;;;;;;5032872;28;20208;-62
2022/10/13 12:12:13;;;;;;;0.10;0.10;;;19.70;99.90;;;;;;5032806;28;20222;-62
2022/10/13 12:14:42;;;;;;;0.30;0.20;;;19.80;99.90;;;;;;5032896;28;20170;-62
2022/10/13 12:17:29;;;;;;;0.00;0.00;;;19.80;99.90;;;;;;5032740;28;20654;-62
2022/10/13 12:19:57;;;;;;;0.10;0.10;;;19.90;99.90;;;;;;5032582;28;20178;-62
2022/10/13 12:22:24;;;;;;;0.00;0.00;;;19.90;99.90;;;;;;5032544;28;20705;-62
2022/10/13 12:25:00;;;;;;;0.10;0.10;;;19.90;99.90;;;;;;5032626;28;20182;-62
2022/10/13 12:27:31;;;;;;;0.10;0.10;;;19.90;99.90;;;;;;5032230;28;20252;-62
2022/10/13 12:29:57;;;;;;;0.03;0.03;;;20.00;99.90;;;;;;5032451;28;20534;-62
2022/10/13 12:32:30;;;;;;;0.00;0.00;;;20.20;99.90;;;;;;5032152;28;20214;-62
2022/10/13 12:35:09;;;;;;;0.15;0.15;;;20.20;99.90;;;;;;5032299;28;20182;-62
2022/10/13 12:37:36;;;;;;;0.00;0.00;;;20.30;99.90;;;;;;5032313;28;20761;-62
2022/10/13 12:40:03;;;;;;;0.20;0.20;;;20.40;99.90;;;;;;5032190;28;20700;-62
2022/10/13 12:42:31;;;;;;;0.10;0.10;;;20.50;99.90;;;;;;5032309;28;20174;-62
2022/10/13 12:44:59;;;;;;;0.15;0.15;;;20.50;99.90;;;;;;5032258;28;20170;-62
2022/10/13 12:47:42;;;;;;;0.00;0.00;;;20.40;99.90;;;;;;5032034;28;20175;-62
2022/10/13 12:50:29;;;;;;;0.05;0.05;;;20.40;99.90;;;;;;5032128;28;20182;-62
2022/10/13 12:53:14;;;;;;;0.00;0.00;;;20.30;99.90;;;;;;5032039;28;20238;-62
2022/10/13 12:55:54;;;;;;;0.03;0.00;;;20.20;99.90;;;;;;5032165;28;20174;-62
2022/10/13 12:58:29;;;;;;;0.05;0.05;;;20.10;99.90;;;;;;5031961;28;20192;-62
2022/10/13 13:00:59;;;;;;;0.00;0.00;;;20.00;99.90;;;;;;5031497;28;20205;-62
2022/10/13 13:03:27;;;;;;;0.38;0.38;;;20.00;99.90;;;;;;5031758;28;20652;-62
2022/10/13 13:06:12;;;;;;;0.10;0.10;;;20.00;99.90;;;;;;5031657;28;20697;-62
2022/10/13 13:08:40;;;;;;;0.15;0.15;;;20.00;99.90;;;;;;5031957;28;20273;-62